Time;durP1;ratioP1;P1;durP2;ratioP2;P2;SDS_P1;SDS_P2;PMS_P1;PMS_P2;Temp;Humidity;BMP_temperature;BMP_pressure;BME280_temperature;BME280_humidity;BME280_pressure;Samples;Min_cycle;Max_cycle;Signal;HPM_P1;HPM_P2
2022/03/01 00:01:48;;;;;;;10.70;6.57;;;4.20;96.00;;;;;;4925512;28;20403;-84
2022/03/01 00:04:13;;;;;;;8.70;5.28;;;4.10;97.10;;;;;;4940015;28;20035;-84
2022/03/01 00:06:39;;;;;;;9.48;5.18;;;4.00;98.60;;;;;;4929508;28;20046;-84
2022/03/01 00:09:04;;;;;;;12.13;6.40;;;3.90;98.60;;;;;;4928041;28;20044;-83
2022/03/01 00:11:32;;;;;;;10.40;6.13;;;4.00;99.20;;;;;;4925399;28;20031;-84
2022/03/01 00:13:58;;;;;;;8.68;5.70;;;4.00;99.90;;;;;;4932483;28;20039;-84
2022/03/01 00:16:24;;;;;;;12.25;6.95;;;4.00;99.80;;;;;;4933170;28;20034;-84
2022/03/01 00:18:49;;;;;;;10.63;6.68;;;3.90;98.40;;;;;;4936606;28;20102;-84
2022/03/01 00:21:15;;;;;;;8.88;5.95;;;3.70;99.90;;;;;;4941204;28;20060;-83
2022/03/01 00:23:40;;;;;;;9.77;5.80;;;3.80;99.90;;;;;;4929392;28;20027;-84
2022/03/01 00:26:06;;;;;;;15.63;6.32;;;3.90;99.80;;;;;;4932377;28;20035;-84
2022/03/01 00:28:32;;;;;;;12.43;7.22;;;3.70;99.90;;;;;;4938193;28;20086;-84
2022/03/01 00:30:57;;;;;;;12.45;6.13;;;3.70;97.80;;;;;;4928545;28;20034;-84
2022/03/01 00:33:23;;;;;;;9.07;5.65;;;3.70;99.90;;;;;;4936212;28;20092;-83
2022/03/01 00:35:48;;;;;;;12.60;6.68;;;3.70;99.90;;;;;;4943670;28;20042;-84
2022/03/01 00:38:14;;;;;;;9.13;6.22;;;3.80;99.90;;;;;;4934101;28;20035;-84
2022/03/01 00:40:39;;;;;;;8.98;5.93;;;3.70;99.90;;;;;;4943007;28;20034;-84
2022/03/01 00:43:05;;;;;;;10.00;6.32;;;3.70;99.90;;;;;;4930474;28;20050;-83
2022/03/01 00:45:30;;;;;;;13.23;6.22;;;3.70;99.90;;;;;;4948983;28;20396;-83
2022/03/01 00:47:56;;;;;;;8.45;5.43;;;3.60;99.70;;;;;;4940435;28;20511;-84
2022/03/01 00:50:21;;;;;;;9.27;5.70;;;3.70;99.90;;;;;;4930657;28;20042;-84
2022/03/01 00:52:47;;;;;;;7.85;6.07;;;3.70;99.70;;;;;;4926138;28;20031;-83
2022/03/01 00:55:12;;;;;;;10.68;6.60;;;3.70;99.60;;;;;;4926615;28;20047;-84
2022/03/01 00:57:38;;;;;;;10.13;6.10;;;3.60;99.90;;;;;;4928443;28;20034;-84
2022/03/01 01:00:05;;;;;;;10.38;5.55;;;3.60;99.90;;;;;;4928463;28;20111;-84
2022/03/01 01:02:31;;;;;;;11.55;6.35;;;3.60;99.90;;;;;;4945807;28;20034;-84
2022/03/01 01:04:56;;;;;;;10.52;6.40;;;3.40;99.90;;;;;;4955673;28;20045;-84
2022/03/01 01:07:22;;;;;;;11.73;6.88;;;3.40;99.90;;;;;;4941631;28;20056;-84
2022/03/01 01:09:47;;;;;;;8.75;5.45;;;3.60;99.90;;;;;;4927152;28;20622;-83
2022/03/01 01:12:13;;;;;;;10.23;6.25;;;3.30;99.90;;;;;;4924499;28;20035;-83
2022/03/01 01:14:38;;;;;;;12.77;7.18;;;3.30;99.90;;;;;;4932664;28;20792;-83
2022/03/01 01:17:04;;;;;;;10.05;6.18;;;3.20;99.90;;;;;;4925894;28;20119;-84
2022/03/01 01:19:30;;;;;;;13.45;7.05;;;3.20;99.90;;;;;;4946527;28;20032;-84
2022/03/01 01:24:40;;;;;;;16.15;6.55;;;3.30;99.90;;;;;;4942294;28;20168;-84
2022/03/01 01:27:05;;;;;;;12.68;6.22;;;3.30;99.90;;;;;;4927581;28;20080;-83
2022/03/01 01:29:31;;;;;;;16.15;7.15;;;3.10;99.90;;;;;;4938751;28;20058;-84
2022/03/01 01:31:56;;;;;;;14.13;7.20;;;3.00;99.90;;;;;;4943815;28;20572;-84
2022/03/01 01:34:22;;;;;;;11.85;7.47;;;2.90;99.90;;;;;;4947634;28;20360;-84
2022/03/01 01:36:47;;;;;;;11.02;7.07;;;2.70;99.90;;;;;;4926526;28;20495;-84
2022/03/01 01:39:13;;;;;;;11.25;6.72;;;2.60;99.90;;;;;;4930597;28;20041;-83
2022/03/01 01:41:38;;;;;;;14.60;6.85;;;2.60;99.90;;;;;;4921945;28;20046;-83
2022/03/01 01:44:05;;;;;;;13.32;7.55;;;2.40;99.90;;;;;;4928803;28;20039;-83
2022/03/01 01:46:31;;;;;;;14.55;7.95;;;2.40;99.90;;;;;;4941193;28;20031;-83
2022/03/01 01:48:56;;;;;;;12.70;7.45;;;2.30;99.90;;;;;;4941332;28;20082;-83
2022/03/01 01:51:23;;;;;;;12.30;7.90;;;2.20;99.90;;;;;;4926169;28;20062;-83
2022/03/01 01:53:49;;;;;;;17.77;7.80;;;2.00;99.90;;;;;;4945671;28;20035;-83
2022/03/01 01:56:14;;;;;;;14.85;8.88;;;1.90;99.90;;;;;;4946006;28;20038;-83
2022/03/01 01:58:40;;;;;;;14.15;7.20;;;1.90;99.90;;;;;;4934634;28;20034;-83
2022/03/01 02:01:05;;;;;;;14.60;7.18;;;1.70;99.90;;;;;;4940145;28;20443;-83
2022/03/01 02:03:31;;;;;;;14.35;7.78;;;1.70;99.90;;;;;;4958149;28;20038;-83
2022/03/01 02:05:56;;;;;;;13.60;8.05;;;1.70;99.90;;;;;;4927844;28;20545;-84
2022/03/01 02:08:29;;;;;;;15.35;7.07;;;1.80;99.90;;;;;;4943690;28;20019;-83
2022/03/01 02:10:54;;;;;;;13.98;7.18;;;1.90;99.90;;;;;;4928014;28;20543;-83
2022/03/01 02:13:20;;;;;;;11.88;6.75;;;1.90;99.90;;;;;;4932139;28;20083;-83
2022/03/01 02:15:45;;;;;;;12.05;6.82;;;1.90;99.90;;;;;;4930372;28;20051;-83
2022/03/01 02:18:11;;;;;;;11.73;6.47;;;2.10;99.90;;;;;;4927699;28;20046;-83
2022/03/01 02:20:37;;;;;;;15.13;6.82;;;2.20;99.90;;;;;;4933592;28;20415;-84
2022/03/01 02:23:02;;;;;;;12.82;7.38;;;2.20;99.90;;;;;;4934641;28;20081;-83
2022/03/01 02:25:28;;;;;;;9.65;5.53;;;2.30;99.90;;;;;;4931521;28;20042;-83
2022/03/01 02:27:53;;;;;;;12.13;6.88;;;2.40;99.90;;;;;;4940789;28;20559;-83
2022/03/01 02:30:19;;;;;;;11.30;6.57;;;2.50;99.90;;;;;;4934000;28;20030;-83
2022/03/01 02:32:44;;;;;;;9.88;4.70;;;2.30;99.90;;;;;;4943652;28;20023;-83
2022/03/01 02:35:11;;;;;;;10.90;6.43;;;2.40;99.90;;;;;;4932882;28;20029;-83
2022/03/01 02:37:37;;;;;;;13.05;6.80;;;2.40;99.90;;;;;;4960882;28;20459;-82
2022/03/01 02:40:05;;;;;;;10.68;6.85;;;2.40;99.90;;;;;;4927292;28;20031;-83
2022/03/01 02:42:30;;;;;;;11.32;7.35;;;2.00;99.90;;;;;;4959990;28;20171;-82
2022/03/01 02:44:56;;;;;;;11.52;6.75;;;2.00;99.90;;;;;;4927828;28;20507;-83
2022/03/01 02:47:22;;;;;;;14.55;5.68;;;2.00;99.90;;;;;;4948254;28;20039;-83
2022/03/01 02:49:47;;;;;;;10.32;6.07;;;2.20;99.90;;;;;;4938408;28;20070;-82
2022/03/01 02:52:13;;;;;;;13.50;6.50;;;2.50;99.90;;;;;;4928331;28;20078;-83
2022/03/01 02:54:38;;;;;;;11.02;6.00;;;2.60;99.90;;;;;;4927422;28;20182;-83
2022/03/01 02:57:04;;;;;;;11.52;6.95;;;2.50;99.90;;;;;;4943547;28;20038;-83
2022/03/01 02:59:31;;;;;;;11.60;6.75;;;2.50;99.90;;;;;;4940628;28;20106;-83
2022/03/01 03:01:57;;;;;;;11.82;6.50;;;2.50;99.90;;;;;;4923802;28;20039;-83
2022/03/01 03:04:23;;;;;;;9.43;5.40;;;2.60;99.90;;;;;;4931486;28;20039;-83
2022/03/01 03:06:49;;;;;;;8.70;5.78;;;2.60;99.90;;;;;;4933903;28;20504;-82
2022/03/01 03:09:15;;;;;;;10.73;5.97;;;2.60;99.90;;;;;;4930894;28;20067;-82
2022/03/01 03:11:40;;;;;;;10.45;6.43;;;2.60;99.90;;;;;;4932485;28;20854;-83
2022/03/01 03:14:06;;;;;;;13.63;7.70;;;2.60;99.90;;;;;;4931051;28;20101;-83
2022/03/01 03:16:31;;;;;;;10.77;6.03;;;2.70;99.90;;;;;;4946093;28;20042;-83
2022/03/01 03:18:57;;;;;;;11.13;6.38;;;2.60;99.90;;;;;;4932388;28;20031;-82
2022/03/01 03:21:23;;;;;;;8.85;4.22;;;2.60;99.90;;;;;;4942532;28;20395;-83
2022/03/01 03:23:48;;;;;;;12.30;7.13;;;2.70;99.90;;;;;;4929706;28;20031;-82
2022/03/01 03:26:14;;;;;;;12.82;6.78;;;2.80;99.90;;;;;;4932994;28;20120;-83
2022/03/01 03:28:39;;;;;;;12.13;6.03;;;2.80;99.90;;;;;;4962978;28;20514;-82
2022/03/01 03:31:05;;;;;;;9.88;6.18;;;2.80;99.90;;;;;;4925210;28;20039;-82
2022/03/01 03:33:30;;;;;;;9.27;5.32;;;2.80;99.90;;;;;;4927665;28;20031;-82
2022/03/01 03:35:56;;;;;;;11.68;6.03;;;2.90;99.90;;;;;;4939241;28;20093;-82
2022/03/01 03:38:23;;;;;;;9.90;5.75;;;3.00;99.90;;;;;;4928602;28;20113;-82
2022/03/01 03:40:49;;;;;;;10.10;5.95;;;3.00;99.90;;;;;;4942205;28;20483;-82
2022/03/01 03:43:14;;;;;;;11.25;7.03;;;3.00;99.90;;;;;;4928438;28;20078;-83
2022/03/01 03:45:40;;;;;;;11.52;6.05;;;3.10;99.90;;;;;;4926910;28;20507;-82
2022/03/01 03:48:06;;;;;;;9.93;4.75;;;3.00;99.90;;;;;;4950344;28;20031;-82
2022/03/01 03:50:31;;;;;;;9.73;5.18;;;3.00;99.90;;;;;;4942012;28;20034;-82
2022/03/01 03:52:57;;;;;;;9.68;4.82;;;3.00;99.90;;;;;;4925571;28;20044;-82
2022/03/01 03:55:22;;;;;;;8.82;5.82;;;3.00;99.90;;;;;;4935820;28;20050;-88
2022/03/01 03:57:48;;;;;;;13.05;6.53;;;3.00;99.90;;;;;;4935505;28;20093;-87
2022/03/01 04:00:16;;;;;;;13.55;5.45;;;3.10;99.90;;;;;;4931259;28;20637;-86
2022/03/01 04:02:43;;;;;;;11.50;6.55;;;3.10;99.90;;;;;;4932365;28;20679;-88
2022/03/01 04:05:09;;;;;;;13.23;6.45;;;3.20;99.90;;;;;;4934313;28;20027;-88
2022/03/01 04:07:35;;;;;;;11.13;6.07;;;3.00;99.90;;;;;;4960568;28;20034;-87
2022/03/01 04:10:00;;;;;;;12.18;7.30;;;2.90;99.90;;;;;;4930037;28;20313;-87
2022/03/01 04:12:26;;;;;;;10.57;6.53;;;3.00;99.90;;;;;;4944345;28;20031;-88
2022/03/01 04:14:51;;;;;;;15.25;6.15;;;3.00;99.90;;;;;;4920175;28;20039;-85
2022/03/01 04:17:17;;;;;;;12.02;5.78;;;3.00;99.90;;;;;;4932063;28;20037;-87
2022/03/01 04:19:44;;;;;;;15.13;6.90;;;3.10;99.90;;;;;;4940685;28;20035;-85
2022/03/01 04:22:10;;;;;;;12.88;6.50;;;3.20;99.90;;;;;;4931455;28;20034;-88
2022/03/01 04:24:35;;;;;;;11.70;5.70;;;3.10;99.90;;;;;;4928230;28;20396;-87
2022/03/01 04:27:02;;;;;;;11.60;6.43;;;3.10;99.90;;;;;;4930348;28;20093;-86
2022/03/01 04:29:28;;;;;;;13.48;6.88;;;3.10;99.90;;;;;;4963258;28;20035;-85
2022/03/01 04:31:54;;;;;;;11.27;6.20;;;3.10;99.90;;;;;;4922854;28;20047;-88
2022/03/01 04:34:19;;;;;;;11.07;6.70;;;3.20;99.90;;;;;;4946351;28;20039;-86
2022/03/01 04:36:45;;;;;;;13.55;6.18;;;3.10;99.90;;;;;;4942297;28;20444;-88
2022/03/01 04:39:10;;;;;;;12.70;6.55;;;3.30;99.90;;;;;;4941478;28;20036;-87
2022/03/01 04:41:36;;;;;;;10.05;5.45;;;3.20;99.90;;;;;;4941977;28;20030;-88
2022/03/01 04:44:01;;;;;;;12.32;6.78;;;3.20;99.90;;;;;;4926030;28;20039;-89
2022/03/01 04:46:29;;;;;;;13.77;6.47;;;3.10;99.90;;;;;;4930995;28;20043;-87
2022/03/01 04:48:54;;;;;;;10.98;6.78;;;3.20;99.90;;;;;;4930188;28;20117;-88
2022/03/01 04:51:21;;;;;;;7.75;4.50;;;3.20;99.90;;;;;;4942411;28;20125;-87
2022/03/01 04:53:48;;;;;;;10.27;6.28;;;3.20;99.90;;;;;;4937532;28;20035;-86
2022/03/01 04:56:14;;;;;;;14.48;7.15;;;3.20;99.90;;;;;;4942132;28;20034;-88
2022/03/01 04:58:39;;;;;;;12.32;6.60;;;3.20;99.90;;;;;;4946311;28;20141;-87
2022/03/01 05:01:05;;;;;;;11.50;6.18;;;3.10;99.90;;;;;;4927368;28;20039;-88
2022/03/01 05:03:30;;;;;;;11.18;6.05;;;3.10;99.90;;;;;;4928932;28;20027;-88
2022/03/01 05:05:56;;;;;;;11.45;6.78;;;3.10;99.90;;;;;;4932832;28;20037;-88
2022/03/01 05:08:21;;;;;;;15.10;6.20;;;3.20;99.90;;;;;;4931814;28;20159;-87
2022/03/01 05:10:47;;;;;;;14.30;7.32;;;3.20;99.90;;;;;;4931686;28;20071;-88
2022/03/01 05:13:13;;;;;;;13.00;5.82;;;3.20;99.90;;;;;;4923767;28;20121;-88
2022/03/01 05:15:38;;;;;;;10.65;6.28;;;3.20;99.90;;;;;;4945555;28;20038;-87
2022/03/01 05:18:04;;;;;;;11.90;6.68;;;3.10;99.90;;;;;;4925448;28;20106;-88
2022/03/01 05:20:30;;;;;;;13.07;6.95;;;3.20;99.90;;;;;;4927886;28;20437;-88
2022/03/01 05:22:55;;;;;;;10.98;6.43;;;3.10;99.90;;;;;;4937785;28;20031;-88
2022/03/01 05:25:22;;;;;;;16.33;7.32;;;3.10;99.90;;;;;;4923921;28;20089;-88
2022/03/01 05:27:49;;;;;;;14.30;7.32;;;3.10;99.90;;;;;;4937046;28;20040;-89
2022/03/01 05:30:15;;;;;;;15.30;7.05;;;3.10;99.90;;;;;;4937848;28;20031;-88
2022/03/01 05:32:50;;;;;;;13.35;6.78;;;3.10;99.90;;;;;;4933573;28;20552;-88
2022/03/01 05:35:17;;;;;;;12.52;7.22;;;3.10;99.90;;;;;;4941325;28;20142;-88
2022/03/01 05:37:43;;;;;;;18.92;8.13;;;3.20;99.90;;;;;;4939035;28;20495;-89
2022/03/01 05:40:09;;;;;;;12.18;5.90;;;3.10;99.90;;;;;;4941622;28;20483;-87
2022/03/01 05:42:35;;;;;;;12.70;7.13;;;3.20;99.90;;;;;;4941570;28;20031;-88
2022/03/01 05:45:01;;;;;;;14.35;7.05;;;3.10;99.90;;;;;;4925376;28;20126;-86
2022/03/01 05:47:27;;;;;;;15.27;7.88;;;3.10;99.90;;;;;;4953910;28;20034;-88
2022/03/01 05:49:53;;;;;;;9.73;5.80;;;3.10;99.90;;;;;;4928604;28;20047;-88
2022/03/01 05:52:20;;;;;;;13.18;6.75;;;3.10;99.90;;;;;;4925338;28;20567;-88
2022/03/01 05:54:45;;;;;;;11.48;7.00;;;3.20;99.90;;;;;;4955746;28;20031;-88
2022/03/01 05:57:11;;;;;;;15.02;7.57;;;3.10;99.90;;;;;;4943977;28;20031;-89
2022/03/01 05:59:36;;;;;;;15.30;7.30;;;3.10;99.90;;;;;;4938762;28;20053;-89
2022/03/01 06:02:02;;;;;;;16.75;7.18;;;3.20;99.90;;;;;;4930285;28;20086;-87
2022/03/01 06:04:28;;;;;;;14.02;7.05;;;3.10;99.90;;;;;;4957857;28;20059;-89
2022/03/01 06:06:53;;;;;;;13.55;7.75;;;3.10;99.90;;;;;;4923907;28;20455;-87
2022/03/01 06:09:19;;;;;;;13.40;5.85;;;3.10;99.90;;;;;;4943901;28;20090;-89
2022/03/01 06:11:45;;;;;;;17.30;8.73;;;3.00;99.90;;;;;;4942025;28;20555;-89
2022/03/01 06:14:10;;;;;;;15.02;6.95;;;3.20;99.90;;;;;;4932909;28;20447;-89
2022/03/01 06:16:36;;;;;;;14.55;6.93;;;3.20;99.90;;;;;;4941712;28;20114;-89
2022/03/01 06:19:01;;;;;;;8.75;4.40;;;3.20;99.90;;;;;;4929038;28;20023;-87
2022/03/01 06:21:27;;;;;;;11.65;6.63;;;3.30;99.90;;;;;;4957206;28;20034;-88
2022/03/01 06:23:52;;;;;;;10.35;5.93;;;3.20;99.90;;;;;;4944543;28;20058;-88
2022/03/01 06:26:18;;;;;;;13.32;7.47;;;3.20;99.90;;;;;;4931659;28;20041;-88
2022/03/01 06:28:43;;;;;;;12.20;6.40;;;3.30;99.90;;;;;;4928123;28;20110;-86
2022/03/01 06:31:09;;;;;;;14.73;7.07;;;3.20;99.90;;;;;;4930975;28;20062;-88
2022/03/01 06:33:35;;;;;;;12.82;6.95;;;3.30;99.90;;;;;;4965124;28;20031;-89
2022/03/01 06:36:00;;;;;;;11.60;6.20;;;3.30;99.90;;;;;;4925867;28;20043;-86
2022/03/01 06:38:26;;;;;;;11.45;6.90;;;3.30;99.90;;;;;;4964869;28;20399;-89
2022/03/01 06:40:55;;;;;;;14.27;7.97;;;3.40;99.90;;;;;;4932284;28;20062;-89
2022/03/01 06:43:21;;;;;;;13.73;6.57;;;3.40;99.90;;;;;;4927694;28;20043;-88
2022/03/01 06:45:47;;;;;;;10.93;6.13;;;3.40;99.90;;;;;;4950210;28;20555;-89
2022/03/01 06:48:13;;;;;;;15.30;6.18;;;3.40;99.90;;;;;;4928753;28;20027;-89
2022/03/01 06:50:38;;;;;;;12.90;6.60;;;3.50;99.90;;;;;;4945046;28;20407;-88
2022/03/01 06:53:04;;;;;;;13.43;7.25;;;3.40;99.90;;;;;;4929172;28;20297;-90
2022/03/01 06:55:30;;;;;;;15.48;8.43;;;3.50;99.90;;;;;;4940607;28;20060;-90
2022/03/01 06:57:56;;;;;;;15.68;7.35;;;3.60;99.90;;;;;;4941071;28;20035;-89
2022/03/01 07:00:22;;;;;;;11.90;6.60;;;3.60;99.90;;;;;;4947628;28;20154;-88
2022/03/01 07:02:47;;;;;;;14.10;7.28;;;3.80;99.90;;;;;;4926695;28;20492;-88
2022/03/01 07:05:14;;;;;;;12.90;5.68;;;3.70;99.90;;;;;;4928115;28;20089;-89
2022/03/01 07:07:40;;;;;;;13.95;6.75;;;3.90;99.90;;;;;;4928031;28;20039;-89
2022/03/01 07:10:07;;;;;;;11.98;6.93;;;4.00;99.90;;;;;;4933299;28;20054;-89
2022/03/01 07:12:33;;;;;;;11.73;6.25;;;4.00;99.90;;;;;;4926048;28;20600;-89
2022/03/01 07:14:58;;;;;;;14.18;6.63;;;4.00;99.90;;;;;;4940538;28;20150;-89
2022/03/01 07:17:24;;;;;;;16.63;6.93;;;3.90;99.90;;;;;;4936210;28;20035;-89
2022/03/01 07:19:50;;;;;;;11.63;6.38;;;3.90;99.60;;;;;;4930801;28;20399;-88
2022/03/01 07:22:16;;;;;;;17.45;7.53;;;4.00;99.90;;;;;;4945772;28;20027;-88
2022/03/01 07:24:42;;;;;;;16.17;6.68;;;3.90;99.50;;;;;;4943257;28;20031;-89
2022/03/01 07:27:08;;;;;;;14.63;7.15;;;3.90;99.90;;;;;;4948089;28;20045;-89
2022/03/01 07:29:34;;;;;;;15.10;6.75;;;4.00;99.00;;;;;;4932298;28;20065;-88
2022/03/01 07:32:00;;;;;;;15.30;6.57;;;4.10;99.20;;;;;;4941957;28;20055;-88
2022/03/01 07:34:25;;;;;;;12.05;5.28;;;4.00;99.50;;;;;;4946884;28;20113;-89
2022/03/01 07:36:51;;;;;;;14.52;5.95;;;3.90;99.30;;;;;;4943007;28;20496;-90
2022/03/01 07:39:17;;;;;;;13.10;6.78;;;4.00;99.30;;;;;;4934127;28;20608;-88
2022/03/01 07:41:43;;;;;;;16.15;8.00;;;4.00;98.90;;;;;;4944803;28;20035;-89
2022/03/01 07:44:11;;;;;;;15.93;7.13;;;4.10;98.20;;;;;;4928834;28;20032;-90
2022/03/01 07:46:38;;;;;;;11.88;6.65;;;4.00;98.70;;;;;;4939832;28;20046;-88
2022/03/01 07:49:25;;;;;;;15.02;6.90;;;4.10;99.50;;;;;;4934082;28;20034;-88
2022/03/01 07:51:50;;;;;;;15.00;8.18;;;4.20;99.20;;;;;;4951177;28;20448;-88
2022/03/01 07:54:16;;;;;;;10.57;6.03;;;4.30;97.90;;;;;;4934370;28;20024;-89
2022/03/01 07:56:41;;;;;;;13.18;7.25;;;4.20;98.80;;;;;;4927922;28;20035;-89
2022/03/01 07:59:07;;;;;;;15.40;7.43;;;4.40;98.60;;;;;;4958198;28;20034;-89
2022/03/01 08:01:51;;;;;;;15.50;6.15;;;4.40;98.40;;;;;;4947721;28;20031;-88
2022/03/01 08:04:19;;;;;;;11.10;5.45;;;4.60;98.40;;;;;;4914576;28;20035;-90
2022/03/01 08:06:45;;;;;;;7.60;4.78;;;4.80;97.60;;;;;;4939815;28;20039;-89
2022/03/01 08:09:11;;;;;;;11.90;6.50;;;5.00;95.90;;;;;;4929704;28;20038;-88
2022/03/01 08:11:36;;;;;;;12.55;6.35;;;5.00;95.30;;;;;;4928934;28;20031;-87
2022/03/01 08:14:07;;;;;;;15.20;7.25;;;5.10;94.40;;;;;;4925722;28;20043;-89
2022/03/01 08:16:36;;;;;;;17.63;7.68;;;5.20;93.50;;;;;;4944703;28;20077;-90
2022/03/01 08:19:02;;;;;;;13.32;7.35;;;5.30;94.20;;;;;;4921462;28;20852;-89
2022/03/01 08:21:27;;;;;;;12.95;7.05;;;5.60;92.30;;;;;;4958590;28;20031;-89
2022/03/01 08:23:53;;;;;;;12.63;6.32;;;5.60;93.50;;;;;;4933590;28;20031;-88
2022/03/01 08:26:19;;;;;;;14.02;6.90;;;5.60;92.20;;;;;;4934628;28;20043;-89
2022/03/01 08:28:46;;;;;;;12.88;6.25;;;5.70;90.30;;;;;;4954111;28;20035;-89
2022/03/01 08:31:12;;;;;;;14.23;7.47;;;5.80;91.70;;;;;;4938112;28;20043;-90
2022/03/01 08:33:41;;;;;;;17.33;7.85;;;5.90;91.40;;;;;;4933563;28;20519;-88
2022/03/01 08:36:07;;;;;;;13.55;6.22;;;6.00;90.00;;;;;;4940142;28;20070;-89
2022/03/01 08:38:33;;;;;;;10.73;5.18;;;6.10;90.30;;;;;;4903825;28;20583;-87
2022/03/01 08:40:59;;;;;;;13.38;7.45;;;6.20;88.90;;;;;;4916387;28;20035;-89
2022/03/01 08:43:25;;;;;;;14.95;6.97;;;6.20;84.20;;;;;;4931156;28;20051;-89
2022/03/01 08:45:51;;;;;;;14.45;6.28;;;6.30;83.20;;;;;;4931958;28;20093;-90
2022/03/01 08:48:17;;;;;;;11.60;6.25;;;6.40;84.70;;;;;;4936491;28;20034;-90
2022/03/01 08:50:42;;;;;;;10.98;7.43;;;6.60;86.90;;;;;;4916313;28;20043;-90
2022/03/01 08:53:08;;;;;;;13.23;6.65;;;6.60;86.80;;;;;;4938892;28;20815;-90
2022/03/01 08:55:34;;;;;;;14.25;6.38;;;6.70;83.30;;;;;;4939861;28;20125;-88
2022/03/01 08:57:59;;;;;;;9.77;5.68;;;6.80;83.30;;;;;;4944345;28;20407;-89
2022/03/01 09:00:28;;;;;;;12.80;6.35;;;7.00;82.70;;;;;;4935388;28;20380;-89
2022/03/01 09:02:54;;;;;;;14.50;6.63;;;7.20;78.20;;;;;;4938542;28;20484;-90
2022/03/01 09:05:20;;;;;;;10.77;5.60;;;7.10;82.30;;;;;;4940259;28;20451;-89
2022/03/01 09:07:45;;;;;;;8.43;4.50;;;7.30;78.90;;;;;;4937453;28;20035;-89
2022/03/01 09:10:11;;;;;;;12.57;5.30;;;7.40;79.00;;;;;;4920145;28;20044;-89
2022/03/01 09:12:42;;;;;;;16.00;7.13;;;7.50;77.50;;;;;;4933251;28;20062;-89
2022/03/01 09:15:30;;;;;;;16.92;6.82;;;7.70;72.90;;;;;;4899406;28;20043;-89
2022/03/01 09:18:22;;;;;;;13.60;7.53;;;7.80;72.30;;;;;;4916175;28;20042;-90
2022/03/01 09:20:50;;;;;;;14.02;6.65;;;8.10;70.80;;;;;;4933727;28;20043;-89
2022/03/01 09:23:16;;;;;;;12.13;6.97;;;8.10;74.80;;;;;;4921975;28;20762;-89
2022/03/01 09:25:41;;;;;;;15.18;6.90;;;8.20;67.70;;;;;;4918022;28;20069;-88
2022/03/01 09:28:07;;;;;;;13.60;6.22;;;8.40;69.10;;;;;;4919753;28;20034;-86
2022/03/01 09:30:42;;;;;;;12.23;6.47;;;8.40;71.50;;;;;;4935893;28;20041;-87
2022/03/01 09:33:10;;;;;;;11.23;6.05;;;8.50;68.30;;;;;;4923305;28;20110;-87
2022/03/01 09:35:38;;;;;;;8.98;4.93;;;8.40;73.60;;;;;;4925656;28;20126;-87
2022/03/01 09:38:03;;;;;;;11.75;6.50;;;8.50;72.40;;;;;;4901326;28;20031;-86
2022/03/01 09:40:29;;;;;;;12.13;6.03;;;8.80;68.80;;;;;;4931678;28;20057;-87
2022/03/01 09:42:55;;;;;;;12.52;6.22;;;8.80;67.70;;;;;;4922754;28;20399;-87
2022/03/01 09:45:20;;;;;;;11.65;5.97;;;8.70;70.00;;;;;;4951055;28;20039;-87
2022/03/01 09:47:55;;;;;;;12.02;6.68;;;8.70;70.70;;;;;;4932451;28;20499;-87
2022/03/01 09:50:47;;;;;;;10.45;5.47;;;8.80;64.30;;;;;;4918355;28;20038;-87
2022/03/01 09:53:14;;;;;;;8.93;5.95;;;8.90;62.40;;;;;;4923996;28;20162;-87
2022/03/01 09:56:12;;;;;;;12.18;5.93;;;9.00;64.40;;;;;;4932147;28;20042;-87
2022/03/01 09:58:47;;;;;;;11.77;6.35;;;8.90;68.00;;;;;;4937791;28;20049;-88
2022/03/01 10:01:16;;;;;;;10.18;4.95;;;8.90;66.70;;;;;;4917701;28;20031;-87
2022/03/01 10:04:28;;;;;;;14.93;6.95;;;8.90;68.90;;;;;;4938846;28;20034;-87
2022/03/01 10:06:54;;;;;;;10.93;5.15;;;9.00;68.70;;;;;;4973395;28;20042;-87
2022/03/01 10:09:21;;;;;;;22.23;9.43;;;9.00;67.70;;;;;;4927920;28;20023;-88
2022/03/01 10:12:42;;;;;;;9.52;5.97;;;9.20;64.20;;;;;;4924435;28;20039;-88
2022/03/01 10:15:13;;;;;;;8.82;5.20;;;9.40;59.30;;;;;;4951259;28;20045;-88
2022/03/01 10:17:43;;;;;;;14.68;6.43;;;9.50;62.90;;;;;;4944117;28;20468;-87
2022/03/01 10:20:11;;;;;;;19.40;6.78;;;9.60;63.80;;;;;;4940585;28;20497;-87
2022/03/01 10:22:45;;;;;;;11.98;5.20;;;9.70;65.00;;;;;;4904534;28;20046;-87
2022/03/01 10:25:10;;;;;;;14.23;7.78;;;9.70;63.70;;;;;;4900444;28;20030;-87
2022/03/01 10:27:36;;;;;;;12.38;5.90;;;10.20;57.90;;;;;;4940045;28;20062;-87
2022/03/01 10:30:06;;;;;;;12.95;6.60;;;10.30;59.20;;;;;;4923068;28;20109;-87
2022/03/01 10:32:32;;;;;;;14.02;6.03;;;10.40;59.10;;;;;;4946896;28;20038;-87
2022/03/01 10:35:05;;;;;;;10.77;6.45;;;10.60;59.60;;;;;;4927811;28;20380;-87
2022/03/01 10:38:21;;;;;;;13.80;7.18;;;10.80;59.00;;;;;;4928423;28;20448;-87
2022/03/01 10:40:59;;;;;;;11.55;5.55;;;10.90;57.90;;;;;;4970646;28;20031;-86
2022/03/01 10:43:25;;;;;;;13.80;6.53;;;11.10;59.00;;;;;;4951592;28;20043;-87
2022/03/01 10:45:51;;;;;;;11.48;6.35;;;11.30;59.10;;;;;;4931190;28;20038;-87
2022/03/01 10:48:34;;;;;;;9.95;6.50;;;11.20;58.50;;;;;;4928777;28;20035;-87
2022/03/01 10:51:13;;;;;;;17.67;6.35;;;11.20;58.20;;;;;;4932339;28;20035;-87
2022/03/01 10:54:33;;;;;;;10.70;5.93;;;11.50;57.20;;;;;;4940422;28;20126;-87
2022/03/01 11:00:45;;;;;;;11.55;6.55;;;11.70;56.70;;;;;;4891277;29;20855;-87
2022/03/01 11:04:08;;;;;;;12.50;7.25;;;12.00;57.10;;;;;;4905409;29;20031;-87
2022/03/01 11:06:35;;;;;;;14.00;6.15;;;12.00;56.40;;;;;;4887205;29;20410;-87
2022/03/01 11:09:02;;;;;;;10.07;5.88;;;12.00;55.20;;;;;;4857547;29;20408;-87
2022/03/01 11:11:28;;;;;;;9.95;5.63;;;12.00;58.10;;;;;;4874603;28;20030;-87
2022/03/01 11:13:54;;;;;;;10.35;5.68;;;12.30;54.90;;;;;;4947821;28;20783;-87
2022/03/01 11:16:43;;;;;;;11.52;6.38;;;12.40;57.40;;;;;;4932392;28;20522;-87
2022/03/01 11:19:43;;;;;;;11.75;5.90;;;12.40;54.60;;;;;;4948065;28;20054;-87
2022/03/01 11:22:20;;;;;;;12.80;6.80;;;12.30;56.00;;;;;;4958345;28;20118;-87
2022/03/01 11:24:46;;;;;;;11.07;6.70;;;12.50;55.40;;;;;;4927540;28;20038;-87
2022/03/01 11:27:11;;;;;;;11.18;6.13;;;12.50;54.80;;;;;;4930165;28;20400;-87
2022/03/01 11:29:40;;;;;;;11.88;6.97;;;12.70;53.50;;;;;;4919666;28;20043;-87
2022/03/01 11:32:15;;;;;;;9.10;5.68;;;12.50;50.80;;;;;;4924952;28;20028;-88
2022/03/01 11:34:41;;;;;;;10.75;5.97;;;12.50;52.50;;;;;;4946147;28;20085;-87
2022/03/01 11:37:13;;;;;;;10.50;6.07;;;12.60;55.40;;;;;;4932587;28;20031;-87
2022/03/01 11:39:39;;;;;;;10.35;5.93;;;12.60;52.50;;;;;;4937715;28;20060;-87
2022/03/01 11:42:21;;;;;;;14.02;7.47;;;12.60;51.50;;;;;;4921106;28;20431;-88
2022/03/01 11:44:52;;;;;;;11.57;5.47;;;12.70;53.00;;;;;;4916617;28;20034;-87
2022/03/01 11:47:31;;;;;;;13.25;5.45;;;12.80;50.80;;;;;;4951639;28;20027;-87
2022/03/01 11:49:56;;;;;;;11.20;6.15;;;12.90;50.90;;;;;;4929127;28;20130;-87
2022/03/01 11:52:26;;;;;;;12.70;5.90;;;13.10;51.50;;;;;;4929788;28;20522;-87
2022/03/01 11:54:53;;;;;;;16.83;6.78;;;13.20;49.00;;;;;;4924824;28;20063;-88
2022/03/01 11:57:25;;;;;;;11.10;5.88;;;13.40;50.70;;;;;;4947916;28;20050;-87
2022/03/01 12:00:26;;;;;;;13.77;6.88;;;13.50;49.80;;;;;;4926106;28;20216;-88
2022/03/01 12:03:18;;;;;;;7.93;4.85;;;13.70;51.40;;;;;;4574984;28;9999720;-87
2022/03/01 12:05:49;;;;;;;12.98;6.90;;;13.60;50.50;;;;;;4892191;28;20098;-87
2022/03/01 12:08:15;;;;;;;11.38;7.22;;;13.70;48.40;;;;;;4940165;28;20111;-87
2022/03/01 12:10:57;;;;;;;10.75;6.13;;;13.50;47.80;;;;;;4933772;28;20042;-88
2022/03/01 12:13:39;;;;;;;11.85;6.38;;;13.50;47.20;;;;;;4934085;28;20066;-87
2022/03/01 12:16:31;;;;;;;11.23;6.10;;;13.30;47.30;;;;;;4940590;28;20503;-88
2022/03/01 12:19:07;;;;;;;11.68;6.35;;;13.40;49.10;;;;;;4921610;28;20035;-87
2022/03/01 12:21:33;;;;;;;11.02;5.45;;;13.40;49.40;;;;;;4923992;28;20058;-88
2022/03/01 12:23:58;;;;;;;12.63;6.22;;;13.40;48.10;;;;;;4940996;28;20519;-87
2022/03/01 12:26:24;;;;;;;10.43;6.10;;;13.40;46.80;;;;;;4938120;28;20434;-88
2022/03/01 12:28:51;;;;;;;10.88;6.82;;;13.30;48.50;;;;;;4930622;28;20037;-88
2022/03/01 12:31:20;;;;;;;19.50;6.00;;;13.30;49.20;;;;;;4929964;28;20514;-87
2022/03/01 12:33:59;;;;;;;8.77;5.55;;;13.40;48.20;;;;;;4922389;28;20035;-88
2022/03/01 12:36:27;;;;;;;11.10;6.15;;;13.30;47.80;;;;;;4941367;28;20045;-88
2022/03/01 12:39:00;;;;;;;10.57;5.85;;;13.30;47.90;;;;;;4932088;28;20034;-88
2022/03/01 12:41:26;;;;;;;11.25;6.28;;;13.40;47.60;;;;;;4937545;28;20034;-87
2022/03/01 12:43:59;;;;;;;19.60;6.40;;;13.40;48.50;;;;;;4946201;28;20446;-87
2022/03/01 12:46:26;;;;;;;12.48;6.65;;;13.30;46.60;;;;;;4949060;28;20037;-88
2022/03/01 12:48:52;;;;;;;10.27;5.78;;;13.20;46.70;;;;;;4926380;28;20034;-87
2022/03/01 12:51:17;;;;;;;10.18;5.65;;;13.60;49.90;;;;;;4930251;28;20062;-87
2022/03/01 12:53:51;;;;;;;12.15;6.43;;;13.50;47.80;;;;;;4929140;28;20036;-87
2022/03/01 12:56:21;;;;;;;12.13;6.35;;;13.60;48.20;;;;;;4958665;28;20038;-87
2022/03/01 12:58:46;;;;;;;9.63;4.97;;;13.60;49.20;;;;;;4925312;28;20053;-87